sensor_id;sensor_type;location;lat;lon;timestamp;P1;durP1;ratioP1;P2;durP2;ratioP2
45382;SDS011;42455;51.660;5.824;2024-01-11T00:02:49;24.0;;;17.0;;
45382;SDS011;42455;51.660;5.824;2024-01-11T00:07:55;23.0;;;17.0;;
45382;SDS011;42455;51.660;5.824;2024-01-11T00:13:01;24.0;;;17.0;;
45382;SDS011;42455;51.660;5.824;2024-01-11T00:18:07;25.0;;;17.0;;
45382;SDS011;42455;51.660;5.824;2024-01-11T00:23:13;26.5;;;19.0;;
45382;SDS011;42455;51.660;5.824;2024-01-11T00:28:20;25.0;;;18.0;;
45382;SDS011;42455;51.660;5.824;2024-01-11T00:33:26;25.0;;;18.0;;
45382;SDS011;42455;51.660;5.824;2024-01-11T00:38:32;25.0;;;18.0;;
45382;SDS011;42455;51.660;5.824;2024-01-11T00:43:38;26.0;;;18.0;;
45382;SDS011;42455;51.660;5.824;2024-01-11T00:48:45;27.0;;;18.0;;
45382;SDS011;42455;51.660;5.824;2024-01-11T00:53:51;27.0;;;18.0;;
45382;SDS011;42455;51.660;5.824;2024-01-11T00:58:57;25.0;;;18.0;;
45382;SDS011;42455;51.660;5.824;2024-01-11T01:04:02;28.0;;;19.0;;
45382;SDS011;42455;51.660;5.824;2024-01-11T01:09:09;28.0;;;18.0;;
45382;SDS011;42455;51.660;5.824;2024-01-11T01:14:15;27.0;;;19.0;;
45382;SDS011;42455;51.660;5.824;2024-01-11T01:19:21;27.0;;;18.5;;
45382;SDS011;42455;51.660;5.824;2024-01-11T01:24:27;27.5;;;19.0;;
45382;SDS011;42455;51.660;5.824;2024-01-11T01:29:33;28.0;;;20.0;;
45382;SDS011;42455;51.660;5.824;2024-01-11T01:34:40;28.0;;;19.5;;
45382;SDS011;42455;51.660;5.824;2024-01-11T01:39:46;29.0;;;20.0;;
45382;SDS011;42455;51.660;5.824;2024-01-11T01:44:52;29.0;;;20.0;;
45382;SDS011;42455;51.660;5.824;2024-01-11T01:49:58;31.0;;;19.0;;
45382;SDS011;42455;51.660;5.824;2024-01-11T01:55:05;26.5;;;19.0;;
45382;SDS011;42455;51.660;5.824;2024-01-11T02:00:11;30.0;;;20.0;;
45382;SDS011;42455;51.660;5.824;2024-01-11T02:05:17;28.0;;;20.0;;
45382;SDS011;42455;51.660;5.824;2024-01-11T02:10:23;29.0;;;19.0;;
45382;SDS011;42455;51.660;5.824;2024-01-11T02:16:36;29.0;;;20.0;;
45382;SDS011;42455;51.660;5.824;2024-01-11T02:20:35;28.0;;;19.5;;
45382;SDS011;42455;51.660;5.824;2024-01-11T02:25:42;28.0;;;20.0;;
45382;SDS011;42455;51.660;5.824;2024-01-11T02:30:48;28.0;;;19.0;;
45382;SDS011;42455;51.660;5.824;2024-01-11T02:35:54;28.0;;;19.0;;
45382;SDS011;42455;51.660;5.824;2024-01-11T02:46:07;30.0;;;19.0;;
45382;SDS011;42455;51.660;5.824;2024-01-11T02:51:13;28.0;;;18.0;;
45382;SDS011;42455;51.660;5.824;2024-01-11T03:01:25;27.0;;;19.0;;
45382;SDS011;42455;51.660;5.824;2024-01-11T03:06:31;26.0;;;18.0;;
45382;SDS011;42455;51.660;5.824;2024-01-11T03:13:05;25.0;;;18.0;;
45382;SDS011;42455;51.660;5.824;2024-01-11T03:21:50;23.0;;;17.0;;
45382;SDS011;42455;51.660;5.824;2024-01-11T03:26:56;25.0;;;17.0;;
45382;SDS011;42455;51.660;5.824;2024-01-11T03:32:02;22.0;;;16.0;;
45382;SDS011;42455;51.660;5.824;2024-01-11T03:37:09;25.0;;;17.0;;
45382;SDS011;42455;51.660;5.824;2024-01-11T03:42:15;23.0;;;16.0;;
45382;SDS011;42455;51.660;5.824;2024-01-11T03:48:53;22.0;;;16.0;;
45382;SDS011;42455;51.660;5.824;2024-01-11T03:52:27;23.0;;;16.0;;
45382;SDS011;42455;51.660;5.824;2024-01-11T03:57:34;24.0;;;15.5;;
45382;SDS011;42455;51.660;5.824;2024-01-11T04:02:40;23.0;;;15.0;;
45382;SDS011;42455;51.660;5.824;2024-01-11T04:07:46;21.0;;;15.0;;
45382;SDS011;42455;51.660;5.824;2024-01-11T04:12:52;21.0;;;15.0;;
45382;SDS011;42455;51.660;5.824;2024-01-11T04:17:58;23.0;;;16.0;;
45382;SDS011;42455;51.660;5.824;2024-01-11T04:23:04;22.0;;;15.0;;
45382;SDS011;42455;51.660;5.824;2024-01-11T04:28:11;21.0;;;15.0;;
45382;SDS011;42455;51.660;5.824;2024-01-11T04:33:17;21.0;;;15.0;;
45382;SDS011;42455;51.660;5.824;2024-01-11T04:38:23;22.0;;;14.0;;
45382;SDS011;42455;51.660;5.824;2024-01-11T04:43:29;21.0;;;15.0;;
45382;SDS011;42455;51.660;5.824;2024-01-11T04:48:36;20.0;;;14.0;;
45382;SDS011;42455;51.660;5.824;2024-01-11T04:53:42;21.0;;;14.0;;
45382;SDS011;42455;51.660;5.824;2024-01-11T04:58:48;19.5;;;14.0;;
45382;SDS011;42455;51.660;5.824;2024-01-11T05:03:54;21.0;;;15.0;;
45382;SDS011;42455;51.660;5.824;2024-01-11T05:09:00;22.0;;;15.0;;
45382;SDS011;42455;51.660;5.824;2024-01-11T05:14:07;20.0;;;14.0;;
45382;SDS011;42455;51.660;5.824;2024-01-11T05:19:13;22.0;;;15.0;;
45382;SDS011;42455;51.660;5.824;2024-01-11T05:24:19;20.0;;;15.0;;
45382;SDS011;42455;51.660;5.824;2024-01-11T05:29:25;20.0;;;14.5;;
45382;SDS011;42455;51.660;5.824;2024-01-11T05:34:31;22.0;;;14.0;;
45382;SDS011;42455;51.660;5.824;2024-01-11T05:39:38;21.0;;;15.0;;
45382;SDS011;42455;51.660;5.824;2024-01-11T05:44:44;21.0;;;14.0;;
45382;SDS011;42455;51.660;5.824;2024-01-11T05:49:50;21.0;;;15.0;;
45382;SDS011;42455;51.660;5.824;2024-01-11T05:54:56;23.0;;;15.0;;
45382;SDS011;42455;51.660;5.824;2024-01-11T06:00:02;21.0;;;15.0;;
45382;SDS011;42455;51.660;5.824;2024-01-11T06:05:09;20.0;;;15.0;;
45382;SDS011;42455;51.660;5.824;2024-01-11T06:10:15;20.5;;;15.0;;
45382;SDS011;42455;51.660;5.824;2024-01-11T06:15:21;21.0;;;15.0;;
45382;SDS011;42455;51.660;5.824;2024-01-11T06:20:27;23.0;;;14.0;;
45382;SDS011;42455;51.660;5.824;2024-01-11T06:25:34;18.0;;;14.0;;
45382;SDS011;42455;51.660;5.824;2024-01-11T06:30:40;22.0;;;15.0;;
45382;SDS011;42455;51.660;5.824;2024-01-11T06:35:45;20.5;;;15.0;;
45382;SDS011;42455;51.660;5.824;2024-01-11T06:40:51;22.0;;;15.0;;
45382;SDS011;42455;51.660;5.824;2024-01-11T06:46:01;25.0;;;15.0;;
45382;SDS011;42455;51.660;5.824;2024-01-11T06:51:04;20.0;;;15.0;;
45382;SDS011;42455;51.660;5.824;2024-01-11T06:56:15;22.0;;;15.0;;
45382;SDS011;42455;51.660;5.824;2024-01-11T07:01:16;21.0;;;15.0;;
45382;SDS011;42455;51.660;5.824;2024-01-11T07:06:21;22.5;;;15.5;;
45382;SDS011;42455;51.660;5.824;2024-01-11T07:11:27;23.0;;;15.0;;
45382;SDS011;42455;51.660;5.824;2024-01-11T07:16:34;22.0;;;15.0;;
45382;SDS011;42455;51.660;5.824;2024-01-11T07:21:41;22.0;;;15.0;;
45382;SDS011;42455;51.660;5.824;2024-01-11T07:26:46;22.0;;;15.0;;
45382;SDS011;42455;51.660;5.824;2024-01-11T07:31:52;22.0;;;15.0;;
45382;SDS011;42455;51.660;5.824;2024-01-11T07:36:59;23.0;;;16.0;;
45382;SDS011;42455;51.660;5.824;2024-01-11T07:42:05;21.0;;;15.0;;
45382;SDS011;42455;51.660;5.824;2024-01-11T07:47:11;21.0;;;15.0;;
45382;SDS011;42455;51.660;5.824;2024-01-11T07:52:17;23.0;;;15.5;;
45382;SDS011;42455;51.660;5.824;2024-01-11T07:57:23;22.5;;;16.0;;
45382;SDS011;42455;51.660;5.824;2024-01-11T08:02:30;23.0;;;17.0;;
45382;SDS011;42455;51.660;5.824;2024-01-11T08:07:37;24.5;;;16.0;;
45382;SDS011;42455;51.660;5.824;2024-01-11T08:12:42;23.0;;;16.0;;
45382;SDS011;42455;51.660;5.824;2024-01-11T08:17:48;24.0;;;17.0;;
45382;SDS011;42455;51.660;5.824;2024-01-11T08:22:54;24.0;;;16.0;;
45382;SDS011;42455;51.660;5.824;2024-01-11T08:28:01;23.5;;;16.0;;
45382;SDS011;42455;51.660;5.824;2024-01-11T08:33:07;26.0;;;17.0;;
45382;SDS011;42455;51.660;5.824;2024-01-11T08:38:13;21.5;;;16.0;;
45382;SDS011;42455;51.660;5.824;2024-01-11T08:43:19;22.0;;;17.0;;
45382;SDS011;42455;51.660;5.824;2024-01-11T08:48:26;23.0;;;17.0;;
45382;SDS011;42455;51.660;5.824;2024-01-11T08:53:32;25.0;;;17.0;;
45382;SDS011;42455;51.660;5.824;2024-01-11T08:58:39;25.0;;;18.0;;
45382;SDS011;42455;51.660;5.824;2024-01-11T09:03:44;24.0;;;17.5;;
45382;SDS011;42455;51.660;5.824;2024-01-11T09:08:50;24.0;;;18.0;;
45382;SDS011;42455;51.660;5.824;2024-01-11T09:13:57;26.0;;;19.0;;
45382;SDS011;42455;51.660;5.824;2024-01-11T09:19:03;26.0;;;19.0;;
45382;SDS011;42455;51.660;5.824;2024-01-11T09:24:09;27.0;;;19.5;;
45382;SDS011;42455;51.660;5.824;2024-01-11T09:29:15;27.0;;;20.0;;
45382;SDS011;42455;51.660;5.824;2024-01-11T09:34:21;28.0;;;20.0;;
45382;SDS011;42455;51.660;5.824;2024-01-11T09:39:27;26.0;;;20.0;;
45382;SDS011;42455;51.660;5.824;2024-01-11T09:44:34;26.0;;;20.0;;
45382;SDS011;42455;51.660;5.824;2024-01-11T09:49:40;27.0;;;19.5;;
45382;SDS011;42455;51.660;5.824;2024-01-11T09:54:46;29.0;;;20.0;;
45382;SDS011;42455;51.660;5.824;2024-01-11T09:59:56;27.0;;;20.0;;
45382;SDS011;42455;51.660;5.824;2024-01-11T10:04:59;26.0;;;20.0;;
45382;SDS011;42455;51.660;5.824;2024-01-11T10:10:05;27.0;;;20.0;;
45382;SDS011;42455;51.660;5.824;2024-01-11T10:15:11;28.0;;;21.0;;
45382;SDS011;42455;51.660;5.824;2024-01-11T10:20:17;27.0;;;20.0;;
45382;SDS011;42455;51.660;5.824;2024-01-11T10:25:23;30.0;;;22.0;;
45382;SDS011;42455;51.660;5.824;2024-01-11T10:30:30;30.5;;;21.5;;
45382;SDS011;42455;51.660;5.824;2024-01-11T10:35:36;29.0;;;22.0;;
45382;SDS011;42455;51.660;5.824;2024-01-11T10:40:42;30.5;;;22.0;;
45382;SDS011;42455;51.660;5.824;2024-01-11T10:45:48;30.0;;;21.0;;
45382;SDS011;42455;51.660;5.824;2024-01-11T10:51:01;29.0;;;21.0;;
45382;SDS011;42455;51.660;5.824;2024-01-11T10:56:01;28.0;;;22.0;;
45382;SDS011;42455;51.660;5.824;2024-01-11T11:01:07;30.0;;;21.0;;
45382;SDS011;42455;51.660;5.824;2024-01-11T11:06:13;28.0;;;21.5;;
45382;SDS011;42455;51.660;5.824;2024-01-11T11:11:19;29.0;;;22.0;;
45382;SDS011;42455;51.660;5.824;2024-01-11T11:21:32;28.0;;;21.5;;
45382;SDS011;42455;51.660;5.824;2024-01-11T11:26:38;29.0;;;22.0;;
45382;SDS011;42455;51.660;5.824;2024-01-11T11:31:45;27.0;;;21.0;;
45382;SDS011;42455;51.660;5.824;2024-01-11T11:36:50;27.0;;;20.5;;
45382;SDS011;42455;51.660;5.824;2024-01-11T11:41:56;26.0;;;20.0;;
45382;SDS011;42455;51.660;5.824;2024-01-11T11:47:18;27.0;;;20.0;;
45382;SDS011;42455;51.660;5.824;2024-01-11T11:52:14;27.0;;;20.0;;
45382;SDS011;42455;51.660;5.824;2024-01-11T11:57:17;25.0;;;20.0;;
45382;SDS011;42455;51.660;5.824;2024-01-11T12:02:21;27.0;;;21.0;;
45382;SDS011;42455;51.660;5.824;2024-01-11T12:07:28;27.0;;;21.0;;
45382;SDS011;42455;51.660;5.824;2024-01-11T12:12:34;26.0;;;21.0;;
45382;SDS011;42455;51.660;5.824;2024-01-11T12:17:40;26.0;;;20.0;;
45382;SDS011;42455;51.660;5.824;2024-01-11T12:22:46;24.5;;;20.0;;
45382;SDS011;42455;51.660;5.824;2024-01-11T12:27:52;22.0;;;19.0;;
45382;SDS011;42455;51.660;5.824;2024-01-11T12:32:59;21.0;;;18.0;;
45382;SDS011;42455;51.660;5.824;2024-01-11T12:38:04;22.0;;;18.0;;
45382;SDS011;42455;51.660;5.824;2024-01-11T12:43:11;21.0;;;17.0;;
45382;SDS011;42455;51.660;5.824;2024-01-11T12:48:16;17.0;;;13.0;;
45382;SDS011;42455;51.660;5.824;2024-01-11T12:53:23;15.0;;;10.0;;
45382;SDS011;42455;51.660;5.824;2024-01-11T12:58:29;12.0;;;9.0;;
45382;SDS011;42455;51.660;5.824;2024-01-11T13:03:35;11.0;;;8.0;;
45382;SDS011;42455;51.660;5.824;2024-01-11T13:08:41;14.5;;;9.0;;
45382;SDS011;42455;51.660;5.824;2024-01-11T13:13:47;14.0;;;9.0;;
45382;SDS011;42455;51.660;5.824;2024-01-11T13:18:53;15.5;;;9.0;;
45382;SDS011;42455;51.660;5.824;2024-01-11T13:24:00;15.0;;;10.0;;
45382;SDS011;42455;51.660;5.824;2024-01-11T13:29:06;16.0;;;10.0;;
45382;SDS011;42455;51.660;5.824;2024-01-11T13:34:12;13.0;;;9.0;;
45382;SDS011;42455;51.660;5.824;2024-01-11T13:39:18;15.0;;;10.0;;
45382;SDS011;42455;51.660;5.824;2024-01-11T13:44:25;17.0;;;10.0;;
45382;SDS011;42455;51.660;5.824;2024-01-11T13:49:31;15.0;;;10.0;;
45382;SDS011;42455;51.660;5.824;2024-01-11T13:54:37;17.0;;;11.0;;
45382;SDS011;42455;51.660;5.824;2024-01-11T13:59:43;18.0;;;11.0;;
45382;SDS011;42455;51.660;5.824;2024-01-11T14:04:49;17.0;;;10.0;;
45382;SDS011;42455;51.660;5.824;2024-01-11T14:09:56;17.0;;;11.0;;
45382;SDS011;42455;51.660;5.824;2024-01-11T14:15:02;17.0;;;11.0;;
45382;SDS011;42455;51.660;5.824;2024-01-11T14:20:08;18.0;;;11.0;;
45382;SDS011;42455;51.660;5.824;2024-01-11T14:25:14;18.0;;;11.0;;
45382;SDS011;42455;51.660;5.824;2024-01-11T14:30:20;17.0;;;11.0;;
45382;SDS011;42455;51.660;5.824;2024-01-11T14:35:27;17.0;;;11.0;;
45382;SDS011;42455;51.660;5.824;2024-01-11T14:40:33;20.0;;;12.0;;
45382;SDS011;42455;51.660;5.824;2024-01-11T14:45:39;18.0;;;12.0;;
45382;SDS011;42455;51.660;5.824;2024-01-11T14:50:45;19.0;;;12.0;;
45382;SDS011;42455;51.660;5.824;2024-01-11T14:55:52;20.0;;;12.0;;
45382;SDS011;42455;51.660;5.824;2024-01-11T15:00:58;19.5;;;12.0;;
45382;SDS011;42455;51.660;5.824;2024-01-11T15:06:04;20.0;;;12.0;;
45382;SDS011;42455;51.660;5.824;2024-01-11T15:11:10;20.0;;;12.0;;
45382;SDS011;42455;51.660;5.824;2024-01-11T15:16:16;19.0;;;13.0;;
45382;SDS011;42455;51.660;5.824;2024-01-11T15:21:22;20.0;;;12.0;;
45382;SDS011;42455;51.660;5.824;2024-01-11T15:26:29;32.0;;;19.5;;
45382;SDS011;42455;51.660;5.824;2024-01-11T15:31:35;21.0;;;13.0;;
45382;SDS011;42455;51.660;5.824;2024-01-11T15:36:41;20.0;;;13.0;;
45382;SDS011;42455;51.660;5.824;2024-01-11T15:41:47;22.0;;;17.0;;
45382;SDS011;42455;51.660;5.824;2024-01-11T15:46:53;21.0;;;13.0;;
45382;SDS011;42455;51.660;5.824;2024-01-11T15:52:00;20.0;;;13.0;;
45382;SDS011;42455;51.660;5.824;2024-01-11T15:57:06;20.0;;;13.0;;
45382;SDS011;42455;51.660;5.824;2024-01-11T16:02:12;21.0;;;13.0;;
45382;SDS011;42455;51.660;5.824;2024-01-11T16:07:18;20.0;;;13.0;;
45382;SDS011;42455;51.660;5.824;2024-01-11T16:12:25;19.5;;;12.0;;
45382;SDS011;42455;51.660;5.824;2024-01-11T16:17:31;20.0;;;13.0;;
45382;SDS011;42455;51.660;5.824;2024-01-11T16:22:37;23.0;;;14.0;;
45382;SDS011;42455;51.660;5.824;2024-01-11T16:27:43;26.0;;;15.0;;
45382;SDS011;42455;51.660;5.824;2024-01-11T16:32:49;20.0;;;13.0;;
45382;SDS011;42455;51.660;5.824;2024-01-11T16:37:56;23.5;;;14.0;;
45382;SDS011;42455;51.660;5.824;2024-01-11T16:43:02;21.0;;;13.0;;
45382;SDS011;42455;51.660;5.824;2024-01-11T16:48:08;22.0;;;14.0;;
45382;SDS011;42455;51.660;5.824;2024-01-11T16:53:14;23.0;;;14.0;;
45382;SDS011;42455;51.660;5.824;2024-01-11T16:58:20;25.0;;;15.0;;
45382;SDS011;42455;51.660;5.824;2024-01-11T17:03:27;27.0;;;15.0;;
45382;SDS011;42455;51.660;5.824;2024-01-11T17:08:33;23.0;;;15.0;;
45382;SDS011;42455;51.660;5.824;2024-01-11T17:13:39;24.0;;;15.0;;
45382;SDS011;42455;51.660;5.824;2024-01-11T17:18:45;23.5;;;15.0;;
45382;SDS011;42455;51.660;5.824;2024-01-11T17:23:52;24.0;;;15.0;;
45382;SDS011;42455;51.660;5.824;2024-01-11T17:28:58;23.0;;;15.0;;
45382;SDS011;42455;51.660;5.824;2024-01-11T17:34:04;23.0;;;15.0;;
45382;SDS011;42455;51.660;5.824;2024-01-11T17:39:10;23.0;;;14.0;;
45382;SDS011;42455;51.660;5.824;2024-01-11T17:44:16;24.0;;;15.0;;
45382;SDS011;42455;51.660;5.824;2024-01-11T17:49:23;26.0;;;16.0;;
45382;SDS011;42455;51.660;5.824;2024-01-11T17:54:29;24.0;;;15.0;;
45382;SDS011;42455;51.660;5.824;2024-01-11T17:59:35;24.0;;;15.5;;
45382;SDS011;42455;51.660;5.824;2024-01-11T18:04:41;24.0;;;15.0;;
45382;SDS011;42455;51.660;5.824;2024-01-11T18:09:46;25.0;;;15.0;;
45382;SDS011;42455;51.660;5.824;2024-01-11T18:14:53;25.0;;;15.5;;
45382;SDS011;42455;51.660;5.824;2024-01-11T18:19:59;26.5;;;16.0;;
45382;SDS011;42455;51.660;5.824;2024-01-11T18:25:05;25.0;;;17.0;;
45382;SDS011;42455;51.660;5.824;2024-01-11T18:30:11;26.0;;;16.5;;
45382;SDS011;42455;51.660;5.824;2024-01-11T18:35:17;25.5;;;17.0;;
45382;SDS011;42455;51.660;5.824;2024-01-11T18:40:24;26.0;;;16.5;;
45382;SDS011;42455;51.660;5.824;2024-01-11T18:45:30;26.0;;;16.0;;
45382;SDS011;42455;51.660;5.824;2024-01-11T18:50:36;26.0;;;16.0;;
45382;SDS011;42455;51.660;5.824;2024-01-11T18:55:42;27.0;;;17.0;;
45382;SDS011;42455;51.660;5.824;2024-01-11T19:00:48;28.0;;;18.0;;
45382;SDS011;42455;51.660;5.824;2024-01-11T19:05:55;27.0;;;18.0;;
45382;SDS011;42455;51.660;5.824;2024-01-11T19:11:01;27.5;;;17.0;;
45382;SDS011;42455;51.660;5.824;2024-01-11T19:16:07;30.0;;;18.0;;
45382;SDS011;42455;51.660;5.824;2024-01-11T19:21:13;27.0;;;17.0;;
45382;SDS011;42455;51.660;5.824;2024-01-11T19:26:19;28.0;;;17.0;;
45382;SDS011;42455;51.660;5.824;2024-01-11T19:31:26;30.0;;;19.0;;
45382;SDS011;42455;51.660;5.824;2024-01-11T19:36:36;32.0;;;20.0;;
45382;SDS011;42455;51.660;5.824;2024-01-11T19:41:39;35.0;;;21.0;;
45382;SDS011;42455;51.660;5.824;2024-01-11T19:46:44;31.0;;;19.0;;
45382;SDS011;42455;51.660;5.824;2024-01-11T19:51:50;29.0;;;19.0;;
45382;SDS011;42455;51.660;5.824;2024-01-11T19:56:57;31.0;;;20.0;;
45382;SDS011;42455;51.660;5.824;2024-01-11T20:02:03;30.0;;;20.0;;
45382;SDS011;42455;51.660;5.824;2024-01-11T20:07:09;31.0;;;19.0;;
45382;SDS011;42455;51.660;5.824;2024-01-11T20:12:15;31.0;;;19.0;;
45382;SDS011;42455;51.660;5.824;2024-01-11T20:17:21;32.0;;;20.0;;
45382;SDS011;42455;51.660;5.824;2024-01-11T20:22:28;32.0;;;19.5;;
45382;SDS011;42455;51.660;5.824;2024-01-11T20:27:34;30.5;;;19.0;;
45382;SDS011;42455;51.660;5.824;2024-01-11T20:32:40;29.0;;;19.0;;
45382;SDS011;42455;51.660;5.824;2024-01-11T20:37:46;30.5;;;19.0;;
45382;SDS011;42455;51.660;5.824;2024-01-11T20:42:53;29.0;;;19.0;;
45382;SDS011;42455;51.660;5.824;2024-01-11T20:47:59;29.5;;;19.5;;
45382;SDS011;42455;51.660;5.824;2024-01-11T20:53:05;28.0;;;18.0;;
45382;SDS011;42455;51.660;5.824;2024-01-11T20:58:11;32.0;;;19.0;;
45382;SDS011;42455;51.660;5.824;2024-01-11T21:03:17;30.0;;;19.0;;
45382;SDS011;42455;51.660;5.824;2024-01-11T21:08:24;31.0;;;20.0;;
45382;SDS011;42455;51.660;5.824;2024-01-11T21:13:30;30.0;;;19.0;;
45382;SDS011;42455;51.660;5.824;2024-01-11T21:18:36;33.0;;;20.0;;
45382;SDS011;42455;51.660;5.824;2024-01-11T21:23:42;28.0;;;18.0;;
45382;SDS011;42455;51.660;5.824;2024-01-11T21:28:48;32.5;;;20.0;;
45382;SDS011;42455;51.660;5.824;2024-01-11T21:33:55;31.5;;;19.0;;
45382;SDS011;42455;51.660;5.824;2024-01-11T21:39:01;31.0;;;20.0;;
45382;SDS011;42455;51.660;5.824;2024-01-11T21:44:07;29.0;;;20.0;;
45382;SDS011;42455;51.660;5.824;2024-01-11T21:49:13;29.0;;;19.0;;
45382;SDS011;42455;51.660;5.824;2024-01-11T21:54:19;31.0;;;19.0;;
45382;SDS011;42455;51.660;5.824;2024-01-11T21:59:26;30.0;;;19.0;;
45382;SDS011;42455;51.660;5.824;2024-01-11T22:04:32;28.5;;;19.0;;
45382;SDS011;42455;51.660;5.824;2024-01-11T22:09:38;28.0;;;19.0;;
45382;SDS011;42455;51.660;5.824;2024-01-11T22:14:44;31.5;;;20.0;;
45382;SDS011;42455;51.660;5.824;2024-01-11T22:19:50;29.0;;;19.0;;
45382;SDS011;42455;51.660;5.824;2024-01-11T22:24:57;30.5;;;19.0;;
45382;SDS011;42455;51.660;5.824;2024-01-11T22:30:03;28.0;;;18.0;;
45382;SDS011;42455;51.660;5.824;2024-01-11T22:35:09;32.0;;;20.0;;
45382;SDS011;42455;51.660;5.824;2024-01-11T22:40:15;31.0;;;20.0;;
45382;SDS011;42455;51.660;5.824;2024-01-11T22:45:21;32.0;;;20.0;;
45382;SDS011;42455;51.660;5.824;2024-01-11T22:50:28;30.0;;;20.0;;
45382;SDS011;42455;51.660;5.824;2024-01-11T22:55:34;32.0;;;20.0;;
45382;SDS011;42455;51.660;5.824;2024-01-11T23:00:40;31.0;;;19.0;;
45382;SDS011;42455;51.660;5.824;2024-01-11T23:05:46;31.0;;;20.0;;
45382;SDS011;42455;51.660;5.824;2024-01-11T23:10:53;30.0;;;19.0;;
45382;SDS011;42455;51.660;5.824;2024-01-11T23:15:59;30.0;;;20.0;;
45382;SDS011;42455;51.660;5.824;2024-01-11T23:21:05;32.0;;;20.0;;
45382;SDS011;42455;51.660;5.824;2024-01-11T23:26:11;30.0;;;19.0;;
45382;SDS011;42455;51.660;5.824;2024-01-11T23:31:17;31.0;;;20.0;;
45382;SDS011;42455;51.660;5.824;2024-01-11T23:36:24;31.0;;;20.5;;
45382;SDS011;42455;51.660;5.824;2024-01-11T23:41:29;29.0;;;19.0;;
45382;SDS011;42455;51.660;5.824;2024-01-11T23:46:35;31.0;;;20.0;;
45382;SDS011;42455;51.660;5.824;2024-01-11T23:51:41;35.5;;;21.0;;
45382;SDS011;42455;51.660;5.824;2024-01-11T23:56:47;31.0;;;20.0;;
